sensor_id;sensor_type;location;lat;lon;timestamp;P1;durP1;ratioP1;P2;durP2;ratioP2
66327;SDS011;53133;52.862;6.602;2023-05-23T00:02:08;29.10;;;17.83;;
66327;SDS011;53133;52.862;6.602;2023-05-23T00:04:37;31.55;;;16.95;;
66327;SDS011;53133;52.862;6.602;2023-05-23T00:07:02;32.20;;;17.17;;
66327;SDS011;53133;52.862;6.602;2023-05-23T00:09:28;30.42;;;15.88;;
66327;SDS011;53133;52.862;6.602;2023-05-23T00:11:54;26.48;;;15.68;;
66327;SDS011;53133;52.862;6.602;2023-05-23T00:14:20;26.00;;;15.55;;
66327;SDS011;53133;52.862;6.602;2023-05-23T00:16:46;26.63;;;16.13;;
66327;SDS011;53133;52.862;6.602;2023-05-23T00:19:13;25.45;;;15.75;;
66327;SDS011;53133;52.862;6.602;2023-05-23T00:21:40;26.42;;;15.65;;
66327;SDS011;53133;52.862;6.602;2023-05-23T00:24:07;23.95;;;15.50;;
66327;SDS011;53133;52.862;6.602;2023-05-23T00:26:34;20.60;;;14.18;;
66327;SDS011;53133;52.862;6.602;2023-05-23T00:29:00;24.08;;;15.15;;
66327;SDS011;53133;52.862;6.602;2023-05-23T00:31:25;20.45;;;14.02;;
66327;SDS011;53133;52.862;6.602;2023-05-23T00:33:51;21.77;;;13.95;;
66327;SDS011;53133;52.862;6.602;2023-05-23T00:36:17;18.98;;;12.88;;
66327;SDS011;53133;52.862;6.602;2023-05-23T00:38:43;20.55;;;14.13;;
66327;SDS011;53133;52.862;6.602;2023-05-23T00:41:10;23.40;;;15.23;;
66327;SDS011;53133;52.862;6.602;2023-05-23T00:43:35;22.25;;;15.88;;
66327;SDS011;53133;52.862;6.602;2023-05-23T00:46:01;24.80;;;16.35;;
66327;SDS011;53133;52.862;6.602;2023-05-23T00:48:30;27.20;;;17.80;;
66327;SDS011;53133;52.862;6.602;2023-05-23T00:50:56;27.65;;;17.48;;
66327;SDS011;53133;52.862;6.602;2023-05-23T00:53:22;24.23;;;16.17;;
66327;SDS011;53133;52.862;6.602;2023-05-23T00:55:48;27.60;;;17.08;;
66327;SDS011;53133;52.862;6.602;2023-05-23T00:58:14;28.30;;;17.13;;
66327;SDS011;53133;52.862;6.602;2023-05-23T01:00:41;28.27;;;17.63;;
66327;SDS011;53133;52.862;6.602;2023-05-23T01:03:09;22.15;;;17.15;;
66327;SDS011;53133;52.862;6.602;2023-05-23T01:05:41;27.08;;;17.00;;
66327;SDS011;53133;52.862;6.602;2023-05-23T01:08:10;21.67;;;15.40;;
66327;SDS011;53133;52.862;6.602;2023-05-23T01:10:36;25.63;;;16.15;;
66327;SDS011;53133;52.862;6.602;2023-05-23T01:13:09;21.23;;;16.20;;
66327;SDS011;53133;52.862;6.602;2023-05-23T01:16:18;26.73;;;15.57;;
66327;SDS011;53133;52.862;6.602;2023-05-23T01:18:56;26.30;;;16.50;;
66327;SDS011;53133;52.862;6.602;2023-05-23T01:21:28;21.55;;;15.98;;
66327;SDS011;53133;52.862;6.602;2023-05-23T01:24:07;21.38;;;16.02;;
66327;SDS011;53133;52.862;6.602;2023-05-23T01:27:00;26.15;;;16.50;;
66327;SDS011;53133;52.862;6.602;2023-05-23T01:29:40;24.63;;;16.25;;
66327;SDS011;53133;52.862;6.602;2023-05-23T01:32:13;24.00;;;16.65;;
66327;SDS011;53133;52.862;6.602;2023-05-23T01:34:41;25.20;;;17.33;;
66327;SDS011;53133;52.862;6.602;2023-05-23T01:37:10;25.45;;;17.15;;
66327;SDS011;53133;52.862;6.602;2023-05-23T01:39:38;25.85;;;16.50;;
66327;SDS011;53133;52.862;6.602;2023-05-23T01:42:04;26.67;;;16.30;;
66327;SDS011;53133;52.862;6.602;2023-05-23T01:44:31;22.40;;;14.77;;
66327;SDS011;53133;52.862;6.602;2023-05-23T01:46:58;22.17;;;14.95;;
66327;SDS011;53133;52.862;6.602;2023-05-23T01:49:26;22.35;;;14.48;;
66327;SDS011;53133;52.862;6.602;2023-05-23T01:51:53;19.67;;;13.52;;
66327;SDS011;53133;52.862;6.602;2023-05-23T01:54:18;18.70;;;14.13;;
66327;SDS011;53133;52.862;6.602;2023-05-23T01:56:44;24.30;;;13.77;;
66327;SDS011;53133;52.862;6.602;2023-05-23T01:59:11;25.45;;;13.65;;
66327;SDS011;53133;52.862;6.602;2023-05-23T02:01:37;22.83;;;12.20;;
66327;SDS011;53133;52.862;6.602;2023-05-23T02:04:03;23.23;;;12.68;;
66327;SDS011;53133;52.862;6.602;2023-05-23T02:06:29;18.60;;;11.57;;
66327;SDS011;53133;52.862;6.602;2023-05-23T02:08:55;18.88;;;11.90;;
66327;SDS011;53133;52.862;6.602;2023-05-23T02:11:21;23.40;;;12.40;;
66327;SDS011;53133;52.862;6.602;2023-05-23T02:13:47;26.80;;;12.52;;
66327;SDS011;53133;52.862;6.602;2023-05-23T02:16:12;20.10;;;11.98;;
66327;SDS011;53133;52.862;6.602;2023-05-23T02:18:38;26.90;;;13.95;;
66327;SDS011;53133;52.862;6.602;2023-05-23T02:21:04;25.55;;;12.32;;
66327;SDS011;53133;52.862;6.602;2023-05-23T02:23:30;26.17;;;13.30;;
66327;SDS011;53133;52.862;6.602;2023-05-23T02:25:55;27.23;;;13.23;;
66327;SDS011;53133;52.862;6.602;2023-05-23T02:28:21;28.17;;;13.88;;
66327;SDS011;53133;52.862;6.602;2023-05-23T02:30:47;28.40;;;13.02;;
66327;SDS011;53133;52.862;6.602;2023-05-23T02:33:12;26.10;;;13.00;;
66327;SDS011;53133;52.862;6.602;2023-05-23T02:35:38;28.92;;;14.07;;
66327;SDS011;53133;52.862;6.602;2023-05-23T02:38:04;32.00;;;14.70;;
66327;SDS011;53133;52.862;6.602;2023-05-23T02:40:30;25.67;;;14.15;;
66327;SDS011;53133;52.862;6.602;2023-05-23T02:42:55;27.05;;;13.38;;
66327;SDS011;53133;52.862;6.602;2023-05-23T02:45:21;25.05;;;12.45;;
66327;SDS011;53133;52.862;6.602;2023-05-23T02:47:47;23.95;;;12.85;;
66327;SDS011;53133;52.862;6.602;2023-05-23T02:50:13;23.08;;;11.65;;
66327;SDS011;53133;52.862;6.602;2023-05-23T02:52:40;22.15;;;10.80;;
66327;SDS011;53133;52.862;6.602;2023-05-23T02:55:06;19.58;;;10.68;;
66327;SDS011;53133;52.862;6.602;2023-05-23T02:57:32;19.40;;;10.23;;
66327;SDS011;53133;52.862;6.602;2023-05-23T02:59:58;18.92;;;10.55;;
66327;SDS011;53133;52.862;6.602;2023-05-23T03:02:23;19.90;;;10.73;;
66327;SDS011;53133;52.862;6.602;2023-05-23T03:04:49;19.73;;;10.45;;
66327;SDS011;53133;52.862;6.602;2023-05-23T03:07:15;22.13;;;11.52;;
66327;SDS011;53133;52.862;6.602;2023-05-23T03:09:40;26.92;;;11.65;;
66327;SDS011;53133;52.862;6.602;2023-05-23T03:12:06;27.30;;;12.07;;
66327;SDS011;53133;52.862;6.602;2023-05-23T03:14:32;25.60;;;11.18;;
66327;SDS011;53133;52.862;6.602;2023-05-23T03:16:57;27.90;;;12.18;;
66327;SDS011;53133;52.862;6.602;2023-05-23T03:19:23;28.13;;;10.93;;
66327;SDS011;53133;52.862;6.602;2023-05-23T03:21:49;24.88;;;10.02;;
66327;SDS011;53133;52.862;6.602;2023-05-23T03:24:26;27.80;;;9.90;;
66327;SDS011;53133;52.862;6.602;2023-05-23T03:26:52;25.77;;;9.85;;
66327;SDS011;53133;52.862;6.602;2023-05-23T03:29:17;25.90;;;10.07;;
66327;SDS011;53133;52.862;6.602;2023-05-23T03:31:43;21.88;;;9.25;;
66327;SDS011;53133;52.862;6.602;2023-05-23T03:34:08;27.92;;;10.55;;
66327;SDS011;53133;52.862;6.602;2023-05-23T03:36:34;24.35;;;8.60;;
66327;SDS011;53133;52.862;6.602;2023-05-23T03:39:03;26.33;;;9.73;;
66327;SDS011;53133;52.862;6.602;2023-05-23T03:41:29;27.13;;;10.00;;
66327;SDS011;53133;52.862;6.602;2023-05-23T03:43:55;24.77;;;9.73;;
66327;SDS011;53133;52.862;6.602;2023-05-23T03:46:21;24.80;;;9.55;;
66327;SDS011;53133;52.862;6.602;2023-05-23T03:48:46;26.00;;;9.80;;
66327;SDS011;53133;52.862;6.602;2023-05-23T03:51:12;28.38;;;9.80;;
66327;SDS011;53133;52.862;6.602;2023-05-23T03:53:38;29.90;;;9.68;;
66327;SDS011;53133;52.862;6.602;2023-05-23T03:56:03;27.60;;;9.30;;
66327;SDS011;53133;52.862;6.602;2023-05-23T03:58:29;27.13;;;8.82;;
66327;SDS011;53133;52.862;6.602;2023-05-23T04:00:55;23.80;;;9.90;;
66327;SDS011;53133;52.862;6.602;2023-05-23T04:03:21;24.27;;;9.68;;
66327;SDS011;53133;52.862;6.602;2023-05-23T04:05:47;22.08;;;9.25;;
66327;SDS011;53133;52.862;6.602;2023-05-23T04:08:13;21.52;;;9.70;;
66327;SDS011;53133;52.862;6.602;2023-05-23T04:10:39;22.85;;;9.93;;
66327;SDS011;53133;52.862;6.602;2023-05-23T04:13:05;18.48;;;8.52;;
66327;SDS011;53133;52.862;6.602;2023-05-23T04:15:31;29.27;;;8.90;;
66327;SDS011;53133;52.862;6.602;2023-05-23T04:17:58;20.08;;;8.02;;
66327;SDS011;53133;52.862;6.602;2023-05-23T04:20:27;20.67;;;8.18;;
66327;SDS011;53133;52.862;6.602;2023-05-23T04:22:53;15.50;;;7.78;;
66327;SDS011;53133;52.862;6.602;2023-05-23T04:25:18;22.10;;;7.82;;
66327;SDS011;53133;52.862;6.602;2023-05-23T04:27:44;22.23;;;7.95;;
66327;SDS011;53133;52.862;6.602;2023-05-23T04:30:11;19.10;;;7.57;;
66327;SDS011;53133;52.862;6.602;2023-05-23T04:32:37;14.40;;;7.55;;
66327;SDS011;53133;52.862;6.602;2023-05-23T04:35:02;21.48;;;7.30;;
66327;SDS011;53133;52.862;6.602;2023-05-23T04:37:28;15.68;;;6.70;;
66327;SDS011;53133;52.862;6.602;2023-05-23T04:39:56;20.17;;;6.97;;
66327;SDS011;53133;52.862;6.602;2023-05-23T04:42:23;20.80;;;7.05;;
66327;SDS011;53133;52.862;6.602;2023-05-23T04:44:49;13.63;;;6.15;;
66327;SDS011;53133;52.862;6.602;2023-05-23T04:47:16;17.52;;;6.25;;
66327;SDS011;53133;52.862;6.602;2023-05-23T04:49:43;20.02;;;6.95;;
66327;SDS011;53133;52.862;6.602;2023-05-23T04:52:09;16.20;;;6.55;;
66327;SDS011;53133;52.862;6.602;2023-05-23T04:54:35;15.75;;;6.75;;
66327;SDS011;53133;52.862;6.602;2023-05-23T04:57:01;18.90;;;7.15;;
66327;SDS011;53133;52.862;6.602;2023-05-23T04:59:27;21.10;;;7.13;;
66327;SDS011;53133;52.862;6.602;2023-05-23T05:01:53;14.13;;;7.10;;
66327;SDS011;53133;52.862;6.602;2023-05-23T05:04:18;23.10;;;7.22;;
66327;SDS011;53133;52.862;6.602;2023-05-23T05:06:44;16.23;;;6.25;;
66327;SDS011;53133;52.862;6.602;2023-05-23T05:09:12;17.98;;;6.45;;
66327;SDS011;53133;52.862;6.602;2023-05-23T05:11:37;19.08;;;6.72;;
66327;SDS011;53133;52.862;6.602;2023-05-23T05:14:03;15.95;;;6.65;;
66327;SDS011;53133;52.862;6.602;2023-05-23T05:16:28;15.95;;;5.72;;
66327;SDS011;53133;52.862;6.602;2023-05-23T05:18:54;15.68;;;5.53;;
66327;SDS011;53133;52.862;6.602;2023-05-23T05:21:21;16.98;;;5.80;;
66327;SDS011;53133;52.862;6.602;2023-05-23T05:23:46;17.45;;;6.07;;
66327;SDS011;53133;52.862;6.602;2023-05-23T05:26:12;15.32;;;6.05;;
66327;SDS011;53133;52.862;6.602;2023-05-23T05:28:38;17.23;;;6.10;;
66327;SDS011;53133;52.862;6.602;2023-05-23T05:31:03;17.60;;;6.38;;
66327;SDS011;53133;52.862;6.602;2023-05-23T05:33:29;15.30;;;6.70;;
66327;SDS011;53133;52.862;6.602;2023-05-23T05:36:03;20.83;;;7.65;;
66327;SDS011;53133;52.862;6.602;2023-05-23T05:38:30;19.35;;;7.72;;
66327;SDS011;53133;52.862;6.602;2023-05-23T05:40:56;21.95;;;7.57;;
66327;SDS011;53133;52.862;6.602;2023-05-23T05:43:21;21.58;;;8.30;;
66327;SDS011;53133;52.862;6.602;2023-05-23T05:45:47;24.60;;;8.45;;
66327;SDS011;53133;52.862;6.602;2023-05-23T05:48:15;22.38;;;8.98;;
66327;SDS011;53133;52.862;6.602;2023-05-23T05:50:41;24.38;;;9.02;;
66327;SDS011;53133;52.862;6.602;2023-05-23T05:53:09;22.73;;;9.30;;
66327;SDS011;53133;52.862;6.602;2023-05-23T05:55:36;23.92;;;9.02;;
66327;SDS011;53133;52.862;6.602;2023-05-23T05:58:02;20.35;;;8.00;;
66327;SDS011;53133;52.862;6.602;2023-05-23T06:00:31;19.40;;;7.40;;
66327;SDS011;53133;52.862;6.602;2023-05-23T06:02:56;20.67;;;7.93;;
66327;SDS011;53133;52.862;6.602;2023-05-23T06:05:22;21.25;;;6.93;;
66327;SDS011;53133;52.862;6.602;2023-05-23T06:07:49;19.40;;;6.90;;
66327;SDS011;53133;52.862;6.602;2023-05-23T06:10:15;15.88;;;7.53;;
66327;SDS011;53133;52.862;6.602;2023-05-23T06:12:41;16.95;;;7.75;;
66327;SDS011;53133;52.862;6.602;2023-05-23T06:15:07;22.67;;;7.40;;
66327;SDS011;53133;52.862;6.602;2023-05-23T06:17:38;15.93;;;7.05;;
66327;SDS011;53133;52.862;6.602;2023-05-23T06:20:04;17.27;;;6.70;;
66327;SDS011;53133;52.862;6.602;2023-05-23T06:22:30;16.75;;;6.38;;
66327;SDS011;53133;52.862;6.602;2023-05-23T06:24:55;15.93;;;6.68;;
66327;SDS011;53133;52.862;6.602;2023-05-23T06:27:21;19.05;;;6.32;;
66327;SDS011;53133;52.862;6.602;2023-05-23T06:29:46;15.95;;;6.43;;
66327;SDS011;53133;52.862;6.602;2023-05-23T06:32:12;17.75;;;6.60;;
66327;SDS011;53133;52.862;6.602;2023-05-23T06:34:38;16.48;;;6.40;;
66327;SDS011;53133;52.862;6.602;2023-05-23T06:37:03;15.05;;;6.25;;
66327;SDS011;53133;52.862;6.602;2023-05-23T06:39:29;17.45;;;6.13;;
66327;SDS011;53133;52.862;6.602;2023-05-23T06:41:54;13.93;;;5.75;;
66327;SDS011;53133;52.862;6.602;2023-05-23T06:44:20;11.77;;;5.70;;
66327;SDS011;53133;52.862;6.602;2023-05-23T06:46:48;12.07;;;5.22;;
66327;SDS011;53133;52.862;6.602;2023-05-23T06:49:14;11.52;;;5.10;;
66327;SDS011;53133;52.862;6.602;2023-05-23T06:51:40;17.30;;;5.28;;
66327;SDS011;53133;52.862;6.602;2023-05-23T06:54:05;13.88;;;4.57;;
66327;SDS011;53133;52.862;6.602;2023-05-23T06:56:31;11.32;;;4.55;;
66327;SDS011;53133;52.862;6.602;2023-05-23T06:58:57;13.48;;;4.10;;
66327;SDS011;53133;52.862;6.602;2023-05-23T07:01:22;19.20;;;4.97;;
66327;SDS011;53133;52.862;6.602;2023-05-23T07:03:48;16.67;;;4.65;;
66327;SDS011;53133;52.862;6.602;2023-05-23T07:06:13;16.48;;;4.80;;
66327;SDS011;53133;52.862;6.602;2023-05-23T07:08:39;11.25;;;4.30;;
66327;SDS011;53133;52.862;6.602;2023-05-23T07:11:05;14.43;;;4.28;;
66327;SDS011;53133;52.862;6.602;2023-05-23T07:13:30;20.30;;;4.47;;
66327;SDS011;53133;52.862;6.602;2023-05-23T07:15:56;13.18;;;4.10;;
66327;SDS011;53133;52.862;6.602;2023-05-23T07:18:22;16.13;;;4.47;;
66327;SDS011;53133;52.862;6.602;2023-05-23T07:20:48;16.02;;;4.82;;
66327;SDS011;53133;52.862;6.602;2023-05-23T07:23:14;15.45;;;4.95;;
66327;SDS011;53133;52.862;6.602;2023-05-23T07:25:40;18.05;;;4.97;;
66327;SDS011;53133;52.862;6.602;2023-05-23T07:28:06;19.67;;;4.85;;
66327;SDS011;53133;52.862;6.602;2023-05-23T07:30:32;15.48;;;4.78;;
66327;SDS011;53133;52.862;6.602;2023-05-23T07:32:58;17.48;;;4.85;;
66327;SDS011;53133;52.862;6.602;2023-05-23T07:35:24;19.75;;;5.30;;
66327;SDS011;53133;52.862;6.602;2023-05-23T07:37:53;16.42;;;4.68;;
66327;SDS011;53133;52.862;6.602;2023-05-23T07:40:19;19.77;;;5.45;;
66327;SDS011;53133;52.862;6.602;2023-05-23T07:42:45;24.60;;;6.10;;
66327;SDS011;53133;52.862;6.602;2023-05-23T07:45:11;18.27;;;4.93;;
66327;SDS011;53133;52.862;6.602;2023-05-23T07:47:37;20.20;;;4.43;;
66327;SDS011;53133;52.862;6.602;2023-05-23T07:50:04;15.60;;;4.28;;
66327;SDS011;53133;52.862;6.602;2023-05-23T07:52:30;22.17;;;5.28;;
66327;SDS011;53133;52.862;6.602;2023-05-23T07:54:56;19.95;;;4.70;;
66327;SDS011;53133;52.862;6.602;2023-05-23T07:57:25;22.50;;;5.38;;
66327;SDS011;53133;52.862;6.602;2023-05-23T07:59:51;15.00;;;4.03;;
66327;SDS011;53133;52.862;6.602;2023-05-23T08:02:17;14.98;;;4.22;;
66327;SDS011;53133;52.862;6.602;2023-05-23T08:04:44;22.30;;;4.10;;
66327;SDS011;53133;52.862;6.602;2023-05-23T08:07:13;19.73;;;4.20;;
66327;SDS011;53133;52.862;6.602;2023-05-23T08:09:39;24.50;;;5.03;;
66327;SDS011;53133;52.862;6.602;2023-05-23T08:12:05;18.40;;;4.75;;
66327;SDS011;53133;52.862;6.602;2023-05-23T08:14:31;18.02;;;4.22;;
66327;SDS011;53133;52.862;6.602;2023-05-23T08:16:57;21.80;;;4.93;;
66327;SDS011;53133;52.862;6.602;2023-05-23T08:19:23;14.85;;;3.95;;
66327;SDS011;53133;52.862;6.602;2023-05-23T08:21:49;17.58;;;3.85;;
66327;SDS011;53133;52.862;6.602;2023-05-23T08:24:17;19.58;;;4.63;;
66327;SDS011;53133;52.862;6.602;2023-05-23T08:26:45;17.77;;;3.80;;
66327;SDS011;53133;52.862;6.602;2023-05-23T08:29:12;16.02;;;4.45;;
66327;SDS011;53133;52.862;6.602;2023-05-23T08:31:38;17.50;;;4.72;;
66327;SDS011;53133;52.862;6.602;2023-05-23T08:34:06;18.50;;;4.55;;
66327;SDS011;53133;52.862;6.602;2023-05-23T08:36:32;13.70;;;4.07;;
66327;SDS011;53133;52.862;6.602;2023-05-23T08:39:00;15.40;;;4.38;;
66327;SDS011;53133;52.862;6.602;2023-05-23T08:41:26;14.40;;;4.35;;
66327;SDS011;53133;52.862;6.602;2023-05-23T08:43:51;21.45;;;5.00;;
66327;SDS011;53133;52.862;6.602;2023-05-23T08:46:17;15.05;;;3.90;;
66327;SDS011;53133;52.862;6.602;2023-05-23T08:48:44;19.10;;;4.60;;
66327;SDS011;53133;52.862;6.602;2023-05-23T08:51:16;14.75;;;4.38;;
66327;SDS011;53133;52.862;6.602;2023-05-23T08:53:41;15.23;;;4.13;;
66327;SDS011;53133;52.862;6.602;2023-05-23T08:56:11;19.42;;;4.65;;
66327;SDS011;53133;52.862;6.602;2023-05-23T08:58:36;21.70;;;4.65;;
66327;SDS011;53133;52.862;6.602;2023-05-23T09:01:04;18.45;;;5.03;;
66327;SDS011;53133;52.862;6.602;2023-05-23T09:03:30;13.52;;;4.50;;
66327;SDS011;53133;52.862;6.602;2023-05-23T09:05:57;15.77;;;4.75;;
66327;SDS011;53133;52.862;6.602;2023-05-23T09:08:23;17.15;;;4.57;;
66327;SDS011;53133;52.862;6.602;2023-05-23T09:10:52;19.55;;;4.60;;
66327;SDS011;53133;52.862;6.602;2023-05-23T09:13:19;20.98;;;5.72;;
66327;SDS011;53133;52.862;6.602;2023-05-23T09:18:32;20.90;;;4.75;;
66327;SDS011;53133;52.862;6.602;2023-05-23T09:21:01;15.25;;;4.30;;
66327;SDS011;53133;52.862;6.602;2023-05-23T09:23:30;12.82;;;4.55;;
66327;SDS011;53133;52.862;6.602;2023-05-23T09:26:00;17.10;;;5.10;;
66327;SDS011;53133;52.862;6.602;2023-05-23T09:28:30;16.55;;;4.40;;
66327;SDS011;53133;52.862;6.602;2023-05-23T09:30:58;17.75;;;4.60;;
66327;SDS011;53133;52.862;6.602;2023-05-23T09:33:28;20.17;;;5.32;;
66327;SDS011;53133;52.862;6.602;2023-05-23T09:36:02;15.50;;;4.43;;
66327;SDS011;53133;52.862;6.602;2023-05-23T09:38:28;21.95;;;4.72;;
66327;SDS011;53133;52.862;6.602;2023-05-23T09:40:53;19.58;;;4.50;;
66327;SDS011;53133;52.862;6.602;2023-05-23T09:43:22;16.98;;;4.45;;
66327;SDS011;53133;52.862;6.602;2023-05-23T09:45:47;15.77;;;4.28;;
66327;SDS011;53133;52.862;6.602;2023-05-23T09:48:13;19.95;;;4.35;;
66327;SDS011;53133;52.862;6.602;2023-05-23T09:50:38;18.83;;;4.35;;
66327;SDS011;53133;52.862;6.602;2023-05-23T09:53:04;16.70;;;4.35;;
66327;SDS011;53133;52.862;6.602;2023-05-23T09:55:30;15.63;;;4.35;;
66327;SDS011;53133;52.862;6.602;2023-05-23T09:57:56;24.13;;;4.75;;
66327;SDS011;53133;52.862;6.602;2023-05-23T10:00:23;15.60;;;4.07;;
66327;SDS011;53133;52.862;6.602;2023-05-23T10:08:10;18.45;;;4.22;;
66327;SDS011;53133;52.862;6.602;2023-05-23T10:13:28;17.40;;;4.60;;
66327;SDS011;53133;52.862;6.602;2023-05-23T10:16:01;18.42;;;4.75;;
66327;SDS011;53133;52.862;6.602;2023-05-23T10:18:34;21.20;;;4.10;;
66327;SDS011;53133;52.862;6.602;2023-05-23T10:21:08;15.93;;;4.22;;
66327;SDS011;53133;52.862;6.602;2023-05-23T10:23:36;16.40;;;4.03;;
66327;SDS011;53133;52.862;6.602;2023-05-23T10:26:03;20.80;;;4.30;;
66327;SDS011;53133;52.862;6.602;2023-05-23T10:28:29;14.57;;;3.85;;
66327;SDS011;53133;52.862;6.602;2023-05-23T10:30:58;14.88;;;3.95;;
66327;SDS011;53133;52.862;6.602;2023-05-23T10:33:25;11.00;;;3.90;;
66327;SDS011;53133;52.862;6.602;2023-05-23T10:35:55;17.20;;;4.25;;
66327;SDS011;53133;52.862;6.602;2023-05-23T10:41:22;14.23;;;3.60;;
66327;SDS011;53133;52.862;6.602;2023-05-23T10:44:11;15.90;;;4.03;;
66327;SDS011;53133;52.862;6.602;2023-05-23T10:46:51;16.50;;;3.78;;
66327;SDS011;53133;52.862;6.602;2023-05-23T10:49:43;13.18;;;3.97;;
66327;SDS011;53133;52.862;6.602;2023-05-23T10:52:11;16.85;;;3.97;;
66327;SDS011;53133;52.862;6.602;2023-05-23T10:54:49;15.70;;;4.47;;
66327;SDS011;53133;52.862;6.602;2023-05-23T10:57:20;19.48;;;3.80;;
66327;SDS011;53133;52.862;6.602;2023-05-23T10:59:50;12.90;;;3.30;;
66327;SDS011;53133;52.862;6.602;2023-05-23T11:02:19;12.57;;;3.05;;
66327;SDS011;53133;52.862;6.602;2023-05-23T11:08:05;11.93;;;3.28;;
66327;SDS011;53133;52.862;6.602;2023-05-23T11:10:32;12.65;;;3.55;;
66327;SDS011;53133;52.862;6.602;2023-05-23T11:13:05;13.73;;;3.45;;
66327;SDS011;53133;52.862;6.602;2023-05-23T11:15:40;13.73;;;3.65;;
66327;SDS011;53133;52.862;6.602;2023-05-23T11:18:06;10.40;;;3.85;;
66327;SDS011;53133;52.862;6.602;2023-05-23T11:20:35;16.85;;;3.70;;
66327;SDS011;53133;52.862;6.602;2023-05-23T11:23:02;12.18;;;3.28;;
66327;SDS011;53133;52.862;6.602;2023-05-23T11:25:44;14.75;;;3.85;;
66327;SDS011;53133;52.862;6.602;2023-05-23T11:28:16;15.02;;;3.55;;
66327;SDS011;53133;52.862;6.602;2023-05-23T11:30:42;14.98;;;4.07;;
66327;SDS011;53133;52.862;6.602;2023-05-23T11:33:09;16.98;;;4.05;;
66327;SDS011;53133;52.862;6.602;2023-05-23T11:35:41;11.18;;;3.55;;
66327;SDS011;53133;52.862;6.602;2023-05-23T11:38:08;14.57;;;3.87;;
66327;SDS011;53133;52.862;6.602;2023-05-23T11:40:35;16.13;;;3.70;;
66327;SDS011;53133;52.862;6.602;2023-05-23T11:43:03;13.63;;;3.50;;
66327;SDS011;53133;52.862;6.602;2023-05-23T11:45:30;13.85;;;3.55;;
66327;SDS011;53133;52.862;6.602;2023-05-23T11:47:57;17.33;;;4.13;;
66327;SDS011;53133;52.862;6.602;2023-05-23T11:50:23;13.57;;;3.65;;
66327;SDS011;53133;52.862;6.602;2023-05-23T11:52:49;15.70;;;3.55;;
66327;SDS011;53133;52.862;6.602;2023-05-23T11:55:18;17.95;;;3.83;;
66327;SDS011;53133;52.862;6.602;2023-05-23T11:57:45;16.73;;;4.45;;
66327;SDS011;53133;52.862;6.602;2023-05-23T12:00:11;20.83;;;4.38;;
66327;SDS011;53133;52.862;6.602;2023-05-23T12:02:46;16.60;;;4.13;;
66327;SDS011;53133;52.862;6.602;2023-05-23T12:05:13;17.85;;;4.03;;
66327;SDS011;53133;52.862;6.602;2023-05-23T12:07:39;13.60;;;3.78;;
66327;SDS011;53133;52.862;6.602;2023-05-23T12:10:05;15.85;;;3.95;;
66327;SDS011;53133;52.862;6.602;2023-05-23T12:12:32;13.10;;;3.70;;
66327;SDS011;53133;52.862;6.602;2023-05-23T12:14:58;12.05;;;3.33;;
66327;SDS011;53133;52.862;6.602;2023-05-23T12:17:23;13.63;;;3.47;;
66327;SDS011;53133;52.862;6.602;2023-05-23T12:19:49;11.85;;;3.28;;
66327;SDS011;53133;52.862;6.602;2023-05-23T12:22:24;16.35;;;3.70;;
66327;SDS011;53133;52.862;6.602;2023-05-23T12:24:53;19.20;;;4.00;;
66327;SDS011;53133;52.862;6.602;2023-05-23T12:27:25;14.00;;;3.95;;
66327;SDS011;53133;52.862;6.602;2023-05-23T12:30:03;15.98;;;3.80;;
66327;SDS011;53133;52.862;6.602;2023-05-23T12:32:33;14.93;;;3.70;;
66327;SDS011;53133;52.862;6.602;2023-05-23T12:35:00;14.23;;;3.58;;
66327;SDS011;53133;52.862;6.602;2023-05-23T12:37:25;18.75;;;3.72;;
66327;SDS011;53133;52.862;6.602;2023-05-23T12:39:51;14.50;;;3.58;;
66327;SDS011;53133;52.862;6.602;2023-05-23T12:42:16;11.35;;;3.40;;
66327;SDS011;53133;52.862;6.602;2023-05-23T12:44:42;11.23;;;3.10;;
66327;SDS011;53133;52.862;6.602;2023-05-23T12:47:08;13.20;;;3.25;;
66327;SDS011;53133;52.862;6.602;2023-05-23T12:49:37;11.95;;;3.50;;
66327;SDS011;53133;52.862;6.602;2023-05-23T12:52:03;11.10;;;3.22;;
66327;SDS011;53133;52.862;6.602;2023-05-23T12:54:28;13.77;;;3.72;;
66327;SDS011;53133;52.862;6.602;2023-05-23T12:56:54;8.05;;;3.10;;
66327;SDS011;53133;52.862;6.602;2023-05-23T12:59:19;11.35;;;2.88;;
66327;SDS011;53133;52.862;6.602;2023-05-23T13:01:45;9.20;;;3.17;;
66327;SDS011;53133;52.862;6.602;2023-05-23T13:04:14;11.88;;;3.28;;
66327;SDS011;53133;52.862;6.602;2023-05-23T13:06:39;14.50;;;3.47;;
66327;SDS011;53133;52.862;6.602;2023-05-23T13:09:05;11.43;;;3.50;;
66327;SDS011;53133;52.862;6.602;2023-05-23T13:11:30;18.20;;;3.65;;
66327;SDS011;53133;52.862;6.602;2023-05-23T13:13:56;13.32;;;3.67;;
66327;SDS011;53133;52.862;6.602;2023-05-23T13:16:22;13.55;;;3.50;;
66327;SDS011;53133;52.862;6.602;2023-05-23T13:18:47;14.68;;;3.63;;
66327;SDS011;53133;52.862;6.602;2023-05-23T13:21:13;20.30;;;4.35;;
66327;SDS011;53133;52.862;6.602;2023-05-23T13:23:39;15.77;;;3.55;;
66327;SDS011;53133;52.862;6.602;2023-05-23T13:26:04;16.10;;;3.33;;
66327;SDS011;53133;52.862;6.602;2023-05-23T13:28:30;12.48;;;2.63;;
66327;SDS011;53133;52.862;6.602;2023-05-23T13:30:56;13.65;;;2.92;;
66327;SDS011;53133;52.862;6.602;2023-05-23T13:33:22;10.07;;;3.20;;
66327;SDS011;53133;52.862;6.602;2023-05-23T13:35:48;12.95;;;2.72;;
66327;SDS011;53133;52.862;6.602;2023-05-23T13:38:16;13.55;;;3.15;;
66327;SDS011;53133;52.862;6.602;2023-05-23T13:40:42;11.65;;;3.08;;
66327;SDS011;53133;52.862;6.602;2023-05-23T13:43:09;10.52;;;2.40;;
66327;SDS011;53133;52.862;6.602;2023-05-23T13:45:35;17.42;;;3.45;;
66327;SDS011;53133;52.862;6.602;2023-05-23T13:48:00;9.13;;;2.97;;
66327;SDS011;53133;52.862;6.602;2023-05-23T13:50:26;16.75;;;2.85;;
66327;SDS011;53133;52.862;6.602;2023-05-23T13:52:52;10.80;;;3.28;;
66327;SDS011;53133;52.862;6.602;2023-05-23T13:55:17;13.82;;;3.35;;
66327;SDS011;53133;52.862;6.602;2023-05-23T13:57:43;9.48;;;2.95;;
66327;SDS011;53133;52.862;6.602;2023-05-23T14:00:09;14.77;;;3.05;;
66327;SDS011;53133;52.862;6.602;2023-05-23T14:02:39;12.13;;;2.78;;
66327;SDS011;53133;52.862;6.602;2023-05-23T14:05:05;13.27;;;3.15;;
66327;SDS011;53133;52.862;6.602;2023-05-23T14:07:32;13.43;;;3.20;;
66327;SDS011;53133;52.862;6.602;2023-05-23T14:09:57;13.48;;;2.85;;
66327;SDS011;53133;52.862;6.602;2023-05-23T14:12:23;9.68;;;3.15;;
66327;SDS011;53133;52.862;6.602;2023-05-23T14:14:50;8.75;;;2.92;;
66327;SDS011;53133;52.862;6.602;2023-05-23T14:17:15;11.00;;;2.75;;
66327;SDS011;53133;52.862;6.602;2023-05-23T14:19:41;14.30;;;3.40;;
66327;SDS011;53133;52.862;6.602;2023-05-23T14:22:07;13.05;;;3.00;;
66327;SDS011;53133;52.862;6.602;2023-05-23T14:24:33;10.48;;;2.60;;
66327;SDS011;53133;52.862;6.602;2023-05-23T14:26:58;10.45;;;2.90;;
66327;SDS011;53133;52.862;6.602;2023-05-23T14:29:27;11.93;;;3.00;;
66327;SDS011;53133;52.862;6.602;2023-05-23T14:31:53;8.20;;;2.80;;
66327;SDS011;53133;52.862;6.602;2023-05-23T14:34:18;12.25;;;3.08;;
66327;SDS011;53133;52.862;6.602;2023-05-23T14:36:45;10.25;;;2.63;;
66327;SDS011;53133;52.862;6.602;2023-05-23T14:39:10;12.23;;;2.72;;
66327;SDS011;53133;52.862;6.602;2023-05-23T14:41:36;12.20;;;2.88;;
66327;SDS011;53133;52.862;6.602;2023-05-23T14:44:02;12.63;;;2.50;;
66327;SDS011;53133;52.862;6.602;2023-05-23T14:46:30;10.20;;;2.67;;
66327;SDS011;53133;52.862;6.602;2023-05-23T14:48:56;12.32;;;3.25;;